.
WxDataArchive / Data Records for 2008-06-16
2008-06-15 June 2008 2008-06-17

Data Records for Monday, 16 June 2008

Time	Temp	Chill	HIndex	Humid	Dewpt	 Wind 	HiWind	WindDir	Rain 	Barom 
-----	----	-----	------	-----	-----	------	------	-------	-----	----- 
00:00	62.0	62.0	62.0	96	60.8	0	1	248	0.00	29.783 
00:05	62.0	62.0	62.0	96	60.8	0	1	248	0.00	29.782 
00:10	62.0	62.0	62.0	96	60.8	0	1	248	0.00	29.781 
00:15	62.0	62.0	62.0	96	60.8	0	1	248	0.00	29.779 
00:20	62.0	62.0	62.0	96	60.8	0	1	248	0.00	29.779 
00:25	62.0	62.0	62.0	96	60.8	0	2	248	0.00	29.779 
00:30	62.0	62.0	62.0	96	60.8	0	2	248	0.00	29.778 
00:35	62.0	62.0	62.0	96	60.8	0	1	248	0.00	29.776 
00:40	61.8	61.8	61.8	96	60.6	0	2	248	0.00	29.772 
00:45	61.8	61.8	61.8	96	60.6	0	2	248	0.00	29.769 
00:50	61.8	61.8	61.8	96	60.6	0	1	248	0.00	29.770 
00:55	61.8	61.8	61.8	95	60.3	0	4	248	0.00	29.767 
01:00	61.8	61.8	61.8	95	60.3	0	1	248	0.00	29.767 
01:05	61.8	61.8	61.8	95	60.3	0	1	248	0.00	29.764 
01:10	61.6	61.6	61.6	95	60.2	0	1	248	0.00	29.763 
01:15	61.6	61.6	61.6	95	60.2	0	1	248	0.00	29.759 
01:20	61.6	61.6	61.6	95	60.2	0	1	248	0.00	29.759 
01:25	61.6	61.6	61.6	95	60.2	0	1	248	0.00	29.757 
01:30	61.5	61.5	61.5	95	60.1	0	1	248	0.00	29.754 
01:35	61.5	61.5	61.5	95	60.1	0	1	248	0.00	29.752 
01:40	61.5	61.5	61.5	95	60.1	0	1	248	0.00	29.752 
01:45	61.5	61.5	61.5	95	60.1	0	1	248	0.00	29.751 
01:50	61.5	61.5	61.5	95	60.1	0	1	248	0.00	29.749 
01:55	61.5	61.5	61.5	95	60.1	0	1	248	0.00	29.748 
02:00	61.5	61.5	61.5	95	60.1	0	1	248	0.00	29.747 
02:05	61.5	61.5	61.5	95	60.1	0	1	248	0.00	29.745 
02:10	61.5	61.5	61.5	95	60.1	0	1	248	0.00	29.744 
02:15	61.5	61.5	61.5	95	60.1	0	1	248	0.00	29.739 
02:20	61.5	61.5	61.5	95	60.1	0	1	248	0.00	29.744 
02:25	61.5	61.5	61.5	95	60.1	0	1	248	0.00	29.744 
02:30	61.6	61.6	61.6	95	60.2	0	1	248	0.00	29.744 
02:35	61.6	61.6	61.6	95	60.2	0	1	248	0.00	29.744 
02:40	61.8	61.8	61.8	94	60.1	0	1	248	0.00	29.745 
02:45	61.8	61.8	61.8	94	60.1	0	1	248	0.00	29.739 
02:50	62.0	62.0	62.0	94	60.2	0	1	248	0.00	29.740 
02:55	62.0	62.0	62.0	94	60.2	0	1	248	0.00	29.741 
03:00	62.0	62.0	62.0	94	60.2	0	1	248	0.00	29.744 
03:05	62.1	62.1	62.1	94	60.3	0	2	248	0.00	29.745 
03:10	62.1	62.1	62.1	94	60.3	0	2	248	0.00	29.745 
03:15	62.3	62.3	62.3	94	60.5	0	2	248	0.00	29.741 
03:20	62.4	62.4	62.4	94	60.6	0	2	248	0.00	29.740 
03:25	62.4	62.4	62.4	93	60.3	0	2	248	0.00	29.738 
03:30	62.6	62.6	62.6	93	60.5	0	2	248	0.00	29.738 
03:35	62.6	62.6	62.6	93	60.5	0	3	248	0.00	29.736 
03:40	62.6	62.6	62.6	93	60.5	1	2	248	0.00	29.740 
03:45	62.6	62.6	62.6	93	60.5	0	2	248	0.00	29.735 
03:50	62.6	62.6	62.6	93	60.5	0	2	248	0.00	29.736 
03:55	62.6	62.6	62.6	93	60.5	0	1	248	0.00	29.740 
04:00	62.6	62.6	62.6	93	60.5	0	1	248	0.00	29.741 
04:05	62.6	62.6	62.6	93	60.5	1	3	248	0.00	29.743 
04:10	62.7	62.7	62.7	93	60.6	1	3	248	0.00	29.745 
04:15	62.7	62.7	62.7	93	60.6	0	2	248	0.00	29.745 
04:20	62.9	62.9	62.9	93	60.8	0	2	248	0.00	29.746 
04:25	62.7	62.7	62.7	93	60.6	0	1	248	0.00	29.746 
04:30	62.7	62.7	62.7	94	60.9	0	3	248	0.00	29.746 
04:35	62.9	62.9	62.9	94	61.1	0	2	248	0.00	29.746 
04:40	62.9	62.9	62.9	94	61.1	1	2	248	0.00	29.746 
04:45	62.9	62.9	62.9	94	61.1	0	2	315	0.00	29.747 
04:50	62.9	62.9	62.9	94	61.1	1	2	315	0.00	29.748 
04:55	62.9	62.9	62.9	94	61.1	0	2	315	0.00	29.748 
05:00	62.9	62.9	62.9	94	61.1	0	2	315	0.01	29.752 
05:05	62.9	62.9	62.9	94	61.1	0	2	315	0.00	29.754 
05:10	62.9	62.9	62.9	94	61.1	0	1	315	0.00	29.757 
05:15	62.9	62.9	62.9	94	61.1	0	2	315	0.00	29.757 
05:20	62.7	62.7	62.7	94	60.9	0	2	315	0.00	29.759 
05:25	62.7	62.7	62.7	94	60.9	0	1	315	0.00	29.758 
05:30	62.6	62.6	62.6	94	60.8	0	2	315	0.00	29.759 
05:35	62.6	62.6	62.6	94	60.8	0	1	315	0.00	29.760 
05:40	62.6	62.6	62.6	94	60.8	0	1	315	0.00	29.761 
05:45	62.6	62.6	62.6	95	61.1	0	1	315	0.00	29.763 
05:50	62.6	62.6	62.6	95	61.1	0	1	315	0.00	29.762 
05:55	62.6	62.6	62.6	95	61.1	0	2	315	0.00	29.763 
06:00	62.7	62.7	62.7	95	61.2	0	2	315	0.00	29.763 
06:05	62.9	62.9	62.9	95	61.4	0	1	315	0.00	29.774 
06:10	62.9	62.9	62.9	95	61.4	0	2	315	0.00	29.775 
06:15	62.9	62.9	62.9	95	61.4	0	3	270	0.00	29.779 
06:20	62.9	62.9	62.9	95	61.4	0	1	270	0.00	29.776 
06:25	63.1	63.1	63.1	94	61.3	0	2	270	0.00	29.776 
06:30	63.1	63.1	63.1	94	61.3	0	3	270	0.00	29.778 
06:35	63.1	63.1	63.1	94	61.3	0	1	338	0.00	29.775 
06:40	63.4	63.4	63.4	93	61.3	0	1	338	0.00	29.777 
06:45	63.7	63.7	63.7	93	61.6	1	3	292	0.00	29.780 
06:50	64.2	64.2	64.2	92	61.8	0	1	292	0.00	29.783 
06:55	64.3	64.3	64.3	90	61.3	1	3	315	0.00	29.783 
07:00	64.7	64.7	64.7	88	61.1	1	4	270	0.00	29.785 
07:05	65.0	65.0	65.0	86	60.7	1	3	292	0.00	29.784 
07:10	65.3	65.3	65.3	86	61.0	0	1	292	0.00	29.784 
07:15	65.3	65.3	65.3	84	60.3	0	2	292	0.00	29.784 
07:20	65.5	65.5	65.5	83	60.2	0	2	292	0.00	29.785 
07:25	65.8	65.8	65.8	82	60.1	1	3	292	0.00	29.786 
07:30	66.3	66.3	66.3	80	59.9	0	2	292	0.00	29.786 
07:35	66.9	66.9	66.9	79	60.2	0	2	292	0.00	29.784 
07:40	67.4	67.4	67.4	77	59.9	0	2	292	0.00	29.786 
07:45	67.9	67.9	67.9	73	58.9	0	2	315	0.00	29.786 
07:50	68.3	68.3	68.3	72	58.9	0	2	315	0.00	29.786 
07:55	68.8	68.8	68.8	73	59.8	0	2	315	0.00	29.784 
08:00	69.1	69.1	69.1	70	58.9	0	2	315	0.00	29.786 
08:05	69.3	69.3	69.3	66	57.4	0	2	315	0.00	29.787 
08:10	69.6	69.6	69.6	68	58.6	1	2	315	0.00	29.787 
08:15	69.9	69.9	69.9	65	57.6	1	3	315	0.00	29.785 
08:20	70.1	70.1	70.1	63	56.9	1	3	315	0.00	29.786 
08:25	70.3	70.3	70.3	62	56.7	1	3	315	0.00	29.786 
08:30	70.8	70.8	70.8	62	57.1	0	2	338	0.00	29.786 
08:35	70.9	70.9	70.9	60	56.3	1	3	292	0.00	29.787 
08:40	71.1	71.1	71.1	57	55.1	1	3	270	0.00	29.789 
08:45	71.3	71.3	71.3	56	54.8	2	6	248	0.00	29.787 
08:50	71.5	71.5	71.5	56	55.0	1	2	338	0.00	29.787 
08:55	71.6	71.6	71.6	57	55.5	1	3	270	0.00	29.784 
09:00	71.8	71.8	71.8	55	54.7	1	3	270	0.00	29.783 
09:05	72.0	72.0	72.0	54	54.4	1	4	338	0.00	29.785 
09:10	72.3	72.3	72.3	54	54.7	2	3	315	0.00	29.786 
09:15	72.7	72.7	72.7	52	54.0	1	4	225	0.00	29.786 
09:20	72.8	72.8	72.8	47	51.4	2	4	292	0.00	29.786 
09:25	72.7	72.7	72.7	44	49.5	3	7	292	0.00	29.786 
09:30	73.0	73.0	73.0	49	52.7	1	5	338	0.00	29.787 
09:35	73.2	73.2	73.2	46	51.2	2	3	315	0.00	29.787 
09:40	73.3	73.3	73.3	45	50.7	2	5	315	0.00	29.786 
09:45	73.5	73.5	73.5	46	51.4	1	4	270	0.00	29.782 
09:50	74.0	74.0	74.0	49	53.6	1	3	292	0.00	29.783 
09:55	74.4	74.4	74.4	45	51.7	1	3	315	0.00	29.781 
10:00	74.6	74.6	74.6	42	50.0	2	5	315	0.00	29.779 
10:05	74.4	74.4	74.4	38	47.1	2	5	315	0.00	29.778 
10:10	74.6	74.6	74.6	39	48.0	2	5	315	0.00	29.780 
10:15	74.9	74.9	74.9	42	50.2	2	4	315	0.00	29.782 
10:20	74.9	74.9	74.9	38	47.6	2	4	315	0.00	29.783 
10:25	74.6	74.6	74.6	38	47.3	1	3	315	0.00	29.784 
10:30	74.2	74.2	74.2	39	47.6	1	5	315	0.00	29.785 
10:35	74.7	74.7	74.7	41	49.4	1	2	315	0.00	29.785 
10:40	75.1	75.1	77.5	40	49.1	1	4	315	0.00	29.785 
10:45	75.8	75.8	77.8	41	50.4	1	4	315	0.00	29.783 
10:50	74.9	74.9	74.9	36	46.1	3	4	270	0.00	29.786 
10:55	74.4	74.4	74.4	39	47.8	3	4	292	0.00	29.787 
11:00	74.7	74.7	74.7	40	48.8	3	10	270	0.00	29.785 
11:05	74.9	74.9	74.9	41	49.6	2	5	315	0.00	29.782 
11:10	75.1	75.1	77.6	41	49.8	3	5	270	0.00	29.776 
11:15	75.3	75.3	77.5	39	48.6	2	7	270	0.00	29.777 
11:20	75.4	75.4	77.6	41	50.0	2	4	315	0.00	29.781 
11:25	75.8	75.8	77.7	40	49.7	2	6	315	0.00	29.780 
11:30	75.8	75.8	77.7	39	49.1	2	4	270	0.00	29.776 
11:35	76.0	76.0	77.8	39	49.2	2	4	292	0.00	29.775 
11:40	75.6	75.6	77.6	39	48.9	2	5	315	0.00	29.774 
11:45	75.6	75.6	77.6	39	48.9	3	6	315	0.00	29.777 
11:50	75.4	75.4	77.7	42	50.7	2	4	338	0.00	29.780 
11:55	75.4	75.4	77.6	40	49.4	2	6	248	0.00	29.782 
12:00	75.3	75.3	77.7	44	51.9	2	4	292	0.00	29.781 
12:05	75.4	75.4	77.6	41	50.0	3	6	270	0.00	29.783 
12:10	75.6	75.6	77.7	41	50.2	2	5	292	0.00	29.779 
12:15	75.6	75.6	77.7	41	50.2	3	6	270	0.00	29.775 
12:20	75.8	75.8	77.7	40	49.7	3	9	270	0.00	29.774 
12:25	76.0	76.0	77.9	41	50.6	3	6	270	0.00	29.774 
12:30	76.8	76.8	78.3	44	53.2	3	5	270	0.00	29.779 
12:35	76.7	76.7	78.1	40	50.5	3	6	270	0.00	29.781 
12:40	76.1	76.1	78.0	45	53.2	2	5	315	0.00	29.781 
12:45	76.5	76.5	78.1	42	51.7	2	4	315	0.00	29.779 
12:50	76.8	76.8	78.3	43	52.6	2	4	315	0.00	29.780 
12:55	76.7	76.7	78.3	45	53.7	2	5	270	0.00	29.782 
13:00	76.5	76.5	78.1	41	51.0	2	6	315	0.00	29.780 
13:05	75.4	75.4	77.7	43	51.3	2	5	315	0.00	29.778 
13:10	74.7	74.7	74.7	44	51.3	2	4	315	0.00	29.775 
13:15	74.9	74.9	74.9	48	53.9	2	5	270	0.00	29.773 
13:20	75.6	75.6	77.8	44	52.1	3	7	292	0.00	29.775 
13:25	76.1	76.1	78.0	44	52.6	2	5	315	0.00	29.770 
13:30	76.1	76.1	78.0	44	52.6	2	4	315	0.00	29.768 
13:35	75.4	75.4	77.8	46	53.2	2	5	315	0.00	29.768 
13:40	75.3	75.3	77.7	45	52.5	2	6	270	0.00	29.770 
13:45	74.7	74.7	74.7	45	51.9	2	4	270	0.00	29.769 
13:50	74.7	74.7	74.7	47	53.1	1	3	315	0.00	29.769 
13:55	75.6	75.6	77.8	46	53.3	1	3	315	0.00	29.765 
14:00	76.5	76.5	78.2	44	52.9	2	5	270	0.00	29.765 
14:05	76.8	76.8	78.3	44	53.2	2	4	292	0.00	29.764 
14:10	76.3	76.3	78.0	43	52.1	3	6	292	0.00	29.762 
14:15	75.1	75.1	77.6	45	52.3	2	8	315	0.00	29.767 
14:20	74.6	74.6	74.6	48	53.6	1	5	248	0.00	29.766 
14:25	75.1	75.1	77.7	46	52.9	1	3	248	0.00	29.762 
14:30	76.0	76.0	78.0	47	54.3	1	6	315	0.00	29.763 
14:35	76.1	76.1	78.1	47	54.4	2	7	315	0.00	29.764 
14:40	76.1	76.1	78.1	48	55.0	2	3	315	0.00	29.764 
14:45	75.3	75.3	77.7	46	53.1	2	5	315	0.00	29.768 
14:50	75.3	75.3	77.7	47	53.7	1	5	270	0.00	29.768 
14:55	74.9	74.9	74.9	47	53.3	2	5	315	0.00	29.767 
15:00	74.7	74.7	74.7	48	53.7	2	6	315	0.00	29.768 
15:05	75.3	75.3	77.7	47	53.7	2	6	270	0.00	29.767 
15:10	75.6	75.6	77.8	46	53.3	2	5	315	0.00	29.766 
15:15	75.4	75.4	77.8	48	54.3	1	3	315	0.00	29.766 
15:20	75.3	75.3	77.7	46	53.1	2	5	315	0.00	29.767 
15:25	75.3	75.3	77.7	49	54.8	2	7	315	0.00	29.767 
15:30	75.3	75.3	77.7	50	55.4	2	4	270	0.00	29.767 
15:35	74.9	74.9	74.9	50	55.0	2	4	292	0.00	29.768 
15:40	74.2	74.2	74.2	50	54.3	2	5	270	0.00	29.769 
15:45	73.9	73.9	73.9	52	55.1	1	4	315	0.00	29.771 
15:50	73.7	73.7	73.7	50	53.9	2	7	315	0.00	29.773 
15:55	73.2	73.2	73.2	53	55.0	3	7	292	0.00	29.776 
16:00	72.8	72.8	72.8	54	55.2	2	5	292	0.00	29.782 
16:05	72.8	72.8	72.8	52	54.1	2	6	292	0.00	29.783 
16:10	72.8	72.8	72.8	51	53.6	2	6	315	0.00	29.786 
16:15	71.3	71.3	71.3	50	51.7	3	6	315	0.00	29.788 
16:20	70.8	70.8	70.8	52	52.3	2	7	292	0.00	29.788 
16:25	71.3	71.3	71.3	52	52.8	2	7	292	0.00	29.788 
16:30	71.8	71.8	71.8	50	52.1	3	10	315	0.00	29.792 
16:35	71.6	71.6	71.6	52	53.0	2	4	292	0.00	29.790 
16:40	70.9	70.9	70.9	51	51.9	3	6	292	0.00	29.793 
16:45	70.8	70.8	70.8	51	51.8	3	7	292	0.00	29.802 
16:50	70.8	70.8	70.8	50	51.2	2	6	315	0.00	29.802 
16:55	70.4	70.4	70.4	50	50.9	3	8	315	0.00	29.798 
17:00	69.9	69.9	69.9	53	52.0	2	9	292	0.00	29.804 
17:05	69.4	69.4	69.4	52	51.0	2	6	292	0.00	29.805 
17:10	69.6	69.6	69.6	53	51.7	2	5	292	0.00	29.807 
17:15	68.9	68.9	68.9	53	51.1	1	6	270	0.00	29.810 
17:20	68.6	68.6	68.6	54	51.3	1	4	270	0.00	29.810 
17:25	68.6	68.6	68.6	51	49.7	3	9	292	0.00	29.813 
17:30	68.4	68.4	68.4	50	49.0	2	12	315	0.00	29.819 
17:35	68.4	68.4	68.4	51	49.6	1	4	292	0.00	29.821 
17:40	67.6	67.6	67.6	50	48.3	2	6	292	0.00	29.823 
17:45	67.6	67.6	67.6	50	48.3	2	5	292	0.00	29.826 
17:50	67.4	67.4	67.4	51	48.6	2	5	292	0.00	29.826 
17:55	67.4	67.4	67.4	50	48.1	2	5	270	0.00	29.830 
18:00	67.3	67.3	67.3	48	46.9	2	6	270	0.00	29.830 
18:05	67.3	67.3	67.3	48	46.9	2	4	315	0.00	29.831 
18:10	67.3	67.3	67.3	48	46.9	2	7	315	0.00	29.834 
18:15	67.1	67.1	67.1	47	46.2	2	6	292	0.00	29.835 
18:20	67.1	67.1	67.1	49	47.3	2	6	315	0.00	29.836 
18:25	67.1	67.1	67.1	47	46.2	2	4	270	0.00	29.838 
18:30	66.8	66.8	66.8	47	45.9	2	5	315	0.00	29.839 
18:35	66.8	66.8	66.8	47	45.9	3	7	292	0.00	29.840 
18:40	66.6	66.6	66.6	48	46.3	1	4	292	0.00	29.843 
18:45	66.6	66.6	66.6	50	47.4	1	3	270	0.00	29.846 
18:50	66.6	66.6	66.6	48	46.3	1	4	270	0.00	29.847 
18:55	66.3	66.3	66.3	48	46.0	1	7	292	0.00	29.849 
19:00	66.0	66.0	66.0	47	45.2	1	4	315	0.00	29.851 
19:05	65.8	65.8	65.8	48	45.6	1	3	315	0.00	29.851 
19:10	65.5	65.5	65.5	46	44.2	1	6	338	0.00	29.853 
19:15	65.3	65.3	65.3	47	44.5	1	4	292	0.00	29.858 
19:20	65.2	65.2	65.2	48	45.0	1	6	292	0.00	29.861 
19:25	65.0	65.0	65.0	46	43.7	2	7	315	0.00	29.863 
19:30	64.7	64.7	64.7	47	44.0	1	5	292	0.00	29.863 
19:35	64.5	64.5	64.5	48	44.4	1	4	315	0.00	29.864 
19:40	64.3	64.3	64.3	48	44.2	1	5	270	0.00	29.869 
19:45	64.2	64.2	64.2	49	44.6	1	3	292	0.00	29.870 
19:50	64.0	64.0	64.0	49	44.5	1	5	292	0.00	29.870 
19:55	63.9	63.9	63.9	49	44.4	1	5	292	0.00	29.875 
20:00	63.7	63.7	63.7	50	44.7	0	2	292	0.00	29.874 
20:05	63.4	63.4	63.4	51	45.0	1	3	315	0.00	29.874 
20:10	63.1	63.1	63.1	51	44.7	1	3	292	0.00	29.876 
20:15	62.9	62.9	62.9	49	43.4	1	4	292	0.00	29.879 
20:20	62.9	62.9	62.9	50	44.0	1	2	315	0.00	29.881 
20:25	62.7	62.7	62.7	50	43.8	0	2	315	0.00	29.881 
20:30	62.4	62.4	62.4	51	44.0	0	1	315	0.00	29.883 
20:35	62.1	62.1	62.1	52	44.3	0	2	315	0.00	29.885 
20:40	62.0	62.0	62.0	52	44.2	0	1	292	0.00	29.885 
20:45	61.8	61.8	61.8	53	44.5	0	2	292	0.00	29.887 
20:50	61.6	61.6	61.6	53	44.3	0	1	292	0.00	29.888 
20:55	61.3	61.3	61.3	54	44.5	0	1	292	0.00	29.892 
21:00	61.0	61.0	61.0	55	44.7	0	1	292	0.00	29.898 
21:05	60.7	60.7	60.7	56	44.9	0	1	292	0.00	29.896 
21:10	60.5	60.5	60.5	56	44.7	0	1	292	0.00	29.897 
21:15	60.4	60.4	60.4	57	45.1	0	1	292	0.00	29.899 
21:20	60.2	60.2	60.2	58	45.4	0	0	---	0.00	29.899 
21:25	59.9	59.9	59.9	58	45.1	0	1	292	0.00	29.901 
21:30	59.8	59.8	59.8	58	45.0	0	1	292	0.00	29.907 
21:35	59.8	59.8	59.8	58	45.0	0	1	292	0.00	29.910 
21:40	59.8	59.8	59.8	58	45.0	0	1	292	0.00	29.909 
21:45	59.6	59.6	59.6	58	44.8	0	1	292	0.00	29.909 
21:50	59.6	59.6	59.6	58	44.8	0	1	292	0.00	29.911 
21:55	59.6	59.6	59.6	58	44.8	0	2	292	0.00	29.913 
22:00	59.5	59.5	59.5	59	45.2	0	1	292	0.00	29.913 
22:05	59.3	59.3	59.3	59	45.0	0	1	292	0.00	29.914 
22:10	59.2	59.2	59.2	59	44.9	0	1	292	0.00	29.913 
22:15	59.2	59.2	59.2	59	44.9	0	1	292	0.00	29.914 
22:20	59.0	59.0	59.0	60	45.1	0	1	292	0.00	29.913 
22:25	58.9	58.9	58.9	60	45.0	0	0	---	0.00	29.912 
22:30	58.7	58.7	58.7	60	44.8	0	1	292	0.00	29.912 
22:35	58.7	58.7	58.7	61	45.3	0	1	292	0.00	29.912 
22:40	58.6	58.6	58.6	62	45.6	0	0	---	0.00	29.914 
22:45	58.3	58.3	58.3	63	45.8	0	0	---	0.00	29.915 
22:50	58.0	58.0	58.0	63	45.5	0	0	---	0.00	29.916 
22:55	57.6	57.6	57.6	64	45.5	0	0	---	0.00	29.916 
23:00	57.5	57.5	57.5	65	45.8	0	0	---	0.00	29.915 
23:05	57.2	57.2	57.2	66	45.9	0	0	---	0.00	29.915 
23:10	57.0	57.0	57.0	66	45.8	0	0	---	0.00	29.916 
23:15	56.9	56.9	56.9	67	46.1	0	1	292	0.00	29.917 
23:20	56.7	56.7	56.7	67	45.9	0	0	---	0.00	29.919 
23:25	56.7	56.7	56.7	68	46.3	0	0	---	0.00	29.918 
23:30	56.6	56.6	56.6	68	46.2	0	0	---	0.00	29.919 
23:35	56.3	56.3	56.3	69	46.3	0	0	---	0.00	29.921 
23:40	56.0	56.0	56.0	70	46.4	0	0	---	0.00	29.923 
23:45	55.7	55.7	55.7	70	46.1	0	0	---	0.00	29.921 
23:50	55.4	55.4	55.4	71	46.2	0	0	---	0.00	29.920 
23:55	55.1	55.1	55.1	72	46.2	0	0	---	0.00	29.918 

CoCoRaHS
IN-AL-39
A2 Web Hosting
Creative Commons License
GoDaddy
Look for:

loaded 2017-10-18 07:41:08 • last modified 2010-11-18 10:43:29
Privacy PolicyDisclaimer
• wx.awcolley.com is powered by PmWiki v.2002016 •
• all content (unless otherwise noted) © 2017 A W Colley